CDT,Max TemperatureF,Mean TemperatureF,Min TemperatureF,Max Dew PointF,MeanDew PointF,Min DewpointF,Max Humidity, Mean Humidity, Min Humidity, Max Sea Level PressureIn, Mean Sea Level PressureIn, Min Sea Level PressureIn, Max VisibilityMiles, Mean VisibilityMiles, Min VisibilityMiles, Max Wind SpeedMPH, Mean Wind SpeedMPH, Max Gust SpeedMPH,PrecipitationIn, CloudCover, Events, WindDirDegrees
2013-4-1,42,34,27,27,20,14,86,58,32,30.28,30.19,30.02,10,10,10,22,15,28,0.00,2,,325
2013-4-2,47,32,19,23,17,9,89,57,23,30.36,30.31,30.28,10,10,10,16,7,37,0.00,0,,323
2013-4-3,50,36,22,21,17,13,82,51,23,30.46,30.37,30.30,10,10,10,13,6,21,0.00,0,,73
2013-4-4,60,42,26,26,21,17,80,46,20,30.29,30.15,30.04,10,10,10,10,3,9,0.00,0,,248
2013-4-5,61,46,32,34,27,22,88,51,24,30.22,30.13,30.04,10,10,7,15,8,20,0.00,1,,61
2013-4-6,72,58,45,49,35,23,74,43,25,30.04,29.82,29.66,10,10,10,31,17,41,0.00,3,Rain-Thunderstorm,186
2013-4-7,72,54,37,43,40,35,95,62,31,29.97,29.88,29.79,10,9,3,15,6,20,0.00,0,,89
2013-4-8,73,63,53,63,57,43,100,81,53,29.87,29.78,29.62,10,9,2,25,11,36,0.84,5,Rain-Thunderstorm,204
2013-4-9,78,70,62,62,60,58,87,73,54,29.87,29.82,29.80,10,10,7,24,10,31,0.00,6,,170
2013-4-10,61,56,45,61,49,44,100,96,78,29.95,29.81,29.68,10,7,2,29,13,36,1.10,7,Rain-Thunderstorm,52
2013-4-11,51,45,39,51,42,32,99,87,73,29.70,29.67,29.64,10,8,2,21,11,25,0.09,8,Rain,237
2013-4-12,46,42,39,36,35,32,86,75,65,29.97,29.79,29.66,10,10,4,22,14,29,0.00,8,Rain,260
2013-4-13,54,46,37,41,33,28,77,63,46,30.04,29.98,29.94,10,10,10,20,13,25,0.00,6,,258
2013-4-14,80,64,48,56,45,37,93,55,26,29.94,29.72,29.57,10,10,3,26,15,36,0.15,3,Rain-Thunderstorm,150
2013-4-15,60,52,43,57,50,40,98,84,61,30.01,29.86,29.72,10,9,2,20,8,24,0.41,7,Rain-Thunderstorm,271
2013-4-16,52,46,41,43,39,34,97,74,58,30.21,30.16,30.00,10,10,10,15,9,22,0.01,8,Rain-Thunderstorm,16
2013-4-17,51,48,45,51,43,37,98,83,66,30.21,30.11,29.99,10,8,2,28,12,33,0.02,8,Rain-Thunderstorm,77
2013-4-18,64,52,40,64,46,32,100,91,72,29.73,29.62,29.48,10,9,2,32,22,39,0.05,8,Rain,244
2013-4-19,46,40,35,33,31,29,81,70,52,30.07,29.82,29.68,10,10,10,31,21,39,0.00,7,Rain,281
2013-4-20,50,41,32,37,30,24,87,66,35,30.37,30.25,30.07,10,10,10,10,7,,0.00,1,,306
2013-4-21,62,51,41,44,38,32,74,61,49,30.43,30.34,30.26,10,10,10,24,14,30,0.00,3,,140
2013-4-22,71,57,43,51,40,35,78,54,27,30.28,30.15,30.00,10,10,10,18,10,25,0.01,2,Rain,153
2013-4-23,57,48,39,51,43,39,100,95,78,30.05,30.01,29.95,10,8,2,23,9,26,0.55,8,Rain,337
2013-4-24,53,44,36,39,35,30,100,73,42,30.19,30.13,30.04,10,10,7,20,12,22,0.03,4,Rain,286
2013-4-25,60,48,38,39,33,29,84,56,32,30.34,30.27,30.16,10,10,10,22,12,28,0.00,1,,266
2013-4-26,65,54,44,47,42,36,80,63,47,30.33,30.29,30.24,10,10,10,24,11,31,0.00,3,,177
2013-4-27,60,52,43,53,48,42,96,84,56,30.30,30.16,30.00,10,8,2,15,6,,0.12,5,Rain,106
2013-4-28,70,62,53,54,52,50,96,76,50,29.99,29.93,29.86,10,8,3,12,5,17,0.02,5,,288
2013-4-29,81,66,50,59,55,48,94,69,45,29.92,29.82,29.71,10,10,5,25,11,30,0.00,0,,173
2013-4-30,89,74,61,62,55,45,91,52,22,29.93,29.82,29.73,10,10,10,23,14,30,0.00,0,,191